createdAt,value
2022-12-04T00:00:49.898Z,59.30
2022-12-04T00:05:52.672Z,56.95
2022-12-04T00:10:57.880Z,60.97
2022-12-04T00:16:01.096Z,56.33
2022-12-04T00:21:05.807Z,54.40
2022-12-04T00:26:12.406Z,52.75
2022-12-04T00:31:18.041Z,56.50
2022-12-04T00:36:22.985Z,56.03
2022-12-04T00:41:29.116Z,49.35
2022-12-04T00:46:32.412Z,48.47
2022-12-04T00:51:35.252Z,50.05
2022-12-04T00:56:40.246Z,48.72
2022-12-04T01:01:43.053Z,49.47
2022-12-04T01:06:47.681Z,46.78
2022-12-04T01:11:51.849Z,46.33
2022-12-04T01:16:54.653Z,46.95
2022-12-04T01:21:57.439Z,48.13
2022-12-04T01:27:01.585Z,48.72
2022-12-04T01:32:04.715Z,46.25
2022-12-04T01:37:07.652Z,48.53
2022-12-04T01:42:15.348Z,45.78
2022-12-04T01:47:18.074Z,49.67
2022-12-04T01:52:24.644Z,48.45
2022-12-04T01:57:32.455Z,48.67
2022-12-04T02:02:37.085Z,49.90
2022-12-04T02:07:41.133Z,53.88
2022-12-04T02:12:53.650Z,46.63
2022-12-04T02:18:03.868Z,51.13
2022-12-04T02:23:30.490Z,53.30
2022-12-04T02:28:39.660Z,47.47
2022-12-04T02:33:46.741Z,54.88
2022-12-04T02:38:56.324Z,51.28
2022-12-04T02:44:08.426Z,52.05
2022-12-04T02:49:17.079Z,51.53
2022-12-04T02:54:26.082Z,51.25
2022-12-04T02:59:34.849Z,48.25
2022-12-04T03:04:40.560Z,51.35
2022-12-04T03:09:46.348Z,49.05
2022-12-04T03:14:55.123Z,46.35
2022-12-04T03:20:03.523Z,53.42
2022-12-04T03:30:15.253Z,51.00
2022-12-04T03:40:27.053Z,46.28
2022-12-04T03:45:40.803Z,47.33
2022-12-04T03:50:51.293Z,54.75
2022-12-04T03:56:03.057Z,49.78
2022-12-04T04:01:10.938Z,50.08
2022-12-04T04:06:18.542Z,48.75
2022-12-04T04:11:28.184Z,43.37
2022-12-04T04:16:54.016Z,49.17
2022-12-04T04:22:16.521Z,49.28
2022-12-04T04:27:19.302Z,47.05
2022-12-04T04:32:32.093Z,52.80
2022-12-04T04:37:41.836Z,46.10
2022-12-04T04:42:49.742Z,45.00
2022-12-04T04:47:59.535Z,51.40
2022-12-04T04:53:06.088Z,51.47
2022-12-04T04:58:09.804Z,49.60
2022-12-04T05:03:13.997Z,48.53
2022-12-04T05:08:16.869Z,50.13
2022-12-04T05:13:20.456Z,50.00
2022-12-04T05:18:24.604Z,45.20
2022-12-04T05:23:27.409Z,47.17
2022-12-04T05:28:30.292Z,47.80
2022-12-04T05:33:34.427Z,47.45
2022-12-04T05:38:38.344Z,48.95
2022-12-04T05:43:41.052Z,48.58
2022-12-04T05:48:45.182Z,47.50
2022-12-04T05:53:48.000Z,52.22
2022-12-04T05:58:50.918Z,47.35
2022-12-04T06:03:57.459Z,48.92
2022-12-04T06:09:01.541Z,48.65
2022-12-04T06:14:06.693Z,49.08
2022-12-04T06:19:14.544Z,52.15
2022-12-04T06:24:21.304Z,45.13
2022-12-04T06:29:25.542Z,48.83
2022-12-04T06:34:29.921Z,48.10
2022-12-04T06:39:32.886Z,55.53
2022-12-04T06:44:35.733Z,51.58
2022-12-04T06:49:40.239Z,51.10
2022-12-04T06:54:45.156Z,49.55
2022-12-04T06:59:48.293Z,50.47
2022-12-04T07:04:56.224Z,53.22
2022-12-04T07:09:59.068Z,51.28
2022-12-04T07:15:02.001Z,57.17
2022-12-04T07:20:12.973Z,50.10
2022-12-04T07:25:16.004Z,57.28
2022-12-04T07:30:18.997Z,56.97
2022-12-04T07:35:24.225Z,53.35
2022-12-04T07:40:27.028Z,54.05
2022-12-04T07:45:30.889Z,51.45
2022-12-04T07:50:36.283Z,57.00
2022-12-04T07:55:40.378Z,51.45
2022-12-04T08:00:43.683Z,54.97
2022-12-04T08:05:47.984Z,54.80
2022-12-04T08:10:50.773Z,53.47
2022-12-04T08:15:53.754Z,56.05
2022-12-04T08:21:04.222Z,56.45
2022-12-04T08:26:08.112Z,58.88
2022-12-04T08:31:14.339Z,61.15
2022-12-04T08:36:20.272Z,60.75
2022-12-04T08:41:25.983Z,54.75
2022-12-04T08:46:29.272Z,56.47
2022-12-04T08:51:35.745Z,53.22
2022-12-04T08:56:38.888Z,60.63
2022-12-04T09:01:41.683Z,60.15
2022-12-04T09:06:45.894Z,56.17
2022-12-04T09:11:50.676Z,58.15
2022-12-04T09:16:53.780Z,56.67
2022-12-04T09:21:57.973Z,46.15
2022-12-04T09:27:12.925Z,51.63
2022-12-04T09:32:17.466Z,53.42
2022-12-04T09:37:21.552Z,49.83
2022-12-04T09:42:38.517Z,55.72
2022-12-04T09:47:45.449Z,48.47
2022-12-04T09:53:00.390Z,55.03
2022-12-04T09:58:07.164Z,51.25
2022-12-04T10:03:15.699Z,53.05
2022-12-04T10:08:23.844Z,49.20
2022-12-04T10:18:49.275Z,50.45
2022-12-04T10:24:02.389Z,48.63
2022-12-04T10:29:08.932Z,43.35
2022-12-04T10:34:17.602Z,46.60
2022-12-04T10:39:26.648Z,44.53
2022-12-04T10:44:29.476Z,45.17
2022-12-04T10:49:34.134Z,45.10
2022-12-04T10:54:44.403Z,44.35
2022-12-04T10:59:52.474Z,39.78
2022-12-04T11:04:58.006Z,44.40
2022-12-04T11:10:05.288Z,46.42
2022-12-04T11:15:16.108Z,44.35
2022-12-04T11:20:21.824Z,46.75
2022-12-04T11:25:28.220Z,47.10
2022-12-04T11:30:35.368Z,41.22
2022-12-04T11:35:38.238Z,47.47
2022-12-04T11:40:48.255Z,44.70
2022-12-04T11:45:58.876Z,44.88
2022-12-04T11:51:10.173Z,46.10
2022-12-04T11:56:21.689Z,47.00
2022-12-04T12:01:37.514Z,40.97
2022-12-04T12:06:49.537Z,43.30
2022-12-04T12:12:02.571Z,49.35
2022-12-04T12:17:16.702Z,48.70
2022-12-04T12:22:37.552Z,45.17
2022-12-04T12:27:56.091Z,45.75
2022-12-04T12:33:09.293Z,43.10
2022-12-04T12:38:16.062Z,43.17
2022-12-04T12:43:30.156Z,42.05
2022-12-04T12:48:41.176Z,46.05
2022-12-04T12:53:48.912Z,39.22
2022-12-04T12:58:57.288Z,42.25
2022-12-04T13:04:08.219Z,42.70
2022-12-04T13:09:19.471Z,40.90
2022-12-04T13:14:23.580Z,39.60
2022-12-04T13:19:29.591Z,42.22
2022-12-04T13:24:57.626Z,41.03
2022-12-04T13:30:11.679Z,41.30
2022-12-04T13:35:23.188Z,42.03
2022-12-04T13:40:36.936Z,38.05
2022-12-04T13:45:41.968Z,38.85
2022-12-04T13:50:44.851Z,41.38
2022-12-04T13:55:57.174Z,40.33
2022-12-04T14:01:13.804Z,37.70
2022-12-04T14:06:29.580Z,41.93
2022-12-04T14:11:56.470Z,37.65
2022-12-04T14:17:01.529Z,42.28
2022-12-04T14:22:05.188Z,44.95
2022-12-04T14:27:34.345Z,43.13
2022-12-04T14:32:44.062Z,43.83
2022-12-04T14:37:57.804Z,44.50
2022-12-04T14:43:00.946Z,46.67
2022-12-04T14:48:18.931Z,47.72
2022-12-04T14:53:32.274Z,43.63
2022-12-04T14:58:38.903Z,49.85
2022-12-04T15:03:47.338Z,45.97
2022-12-04T15:13:53.909Z,52.90
2022-12-04T15:18:59.854Z,48.10
2022-12-04T15:24:08.581Z,49.95
2022-12-04T15:29:19.034Z,49.92
2022-12-04T15:34:37.237Z,46.10
2022-12-04T15:39:40.944Z,50.35
2022-12-04T15:44:52.624Z,47.13
2022-12-04T15:50:09.796Z,50.65
2022-12-04T15:55:18.296Z,50.63
2022-12-04T16:00:25.096Z,46.15
2022-12-04T16:05:37.495Z,47.28
2022-12-04T16:10:41.075Z,52.72
2022-12-04T16:15:45.136Z,47.83
2022-12-04T16:20:49.800Z,52.95
2022-12-04T16:25:53.828Z,49.72
2022-12-04T16:31:00.072Z,50.60
2022-12-04T16:36:04.600Z,47.25
2022-12-04T16:41:12.671Z,46.70
2022-12-04T16:46:17.563Z,44.65
2022-12-04T16:51:23.894Z,48.63
2022-12-04T16:56:26.841Z,52.78
2022-12-04T17:01:36.345Z,54.88
2022-12-04T17:06:40.922Z,50.78
2022-12-04T17:11:43.915Z,53.97
2022-12-04T17:16:47.431Z,51.25
2022-12-04T17:21:51.735Z,44.95
2022-12-04T17:26:54.910Z,46.15
2022-12-04T17:31:58.043Z,46.50
2022-12-04T17:37:02.711Z,49.75
2022-12-04T17:42:05.683Z,45.78
2022-12-04T17:47:08.522Z,45.53
2022-12-04T17:52:12.682Z,45.70
2022-12-04T17:57:16.847Z,44.42
2022-12-04T18:02:22.796Z,42.85
2022-12-04T18:07:27.123Z,37.30
2022-12-04T18:12:32.877Z,41.65
2022-12-04T18:17:38.113Z,46.85
2022-12-04T18:22:42.409Z,43.97
2022-12-04T18:27:45.228Z,44.30
2022-12-04T18:32:52.606Z,36.42
2022-12-04T18:38:15.223Z,40.92
2022-12-04T18:43:36.171Z,37.90
2022-12-04T18:48:56.745Z,32.17
2022-12-04T18:54:16.309Z,35.70
2022-12-04T18:59:30.709Z,38.17
2022-12-04T19:04:34.218Z,34.38
2022-12-04T19:15:17.509Z,35.00
2022-12-04T19:20:30.684Z,38.28
2022-12-04T19:25:37.739Z,37.42
2022-12-04T19:30:40.806Z,37.17
2022-12-04T19:35:44.159Z,40.10
2022-12-04T19:40:51.560Z,40.90
2022-12-04T19:45:57.359Z,43.17
2022-12-04T19:51:04.693Z,43.92
2022-12-04T19:56:12.617Z,42.13
2022-12-04T20:01:18.083Z,40.05
2022-12-04T20:06:24.539Z,41.63
2022-12-04T20:11:30.259Z,38.80
2022-12-04T20:16:34.917Z,34.45
2022-12-04T20:21:37.858Z,39.40
2022-12-04T20:26:51.314Z,37.45
2022-12-04T20:38:04.701Z,39.25
2022-12-04T20:43:24.127Z,38.35
2022-12-04T20:48:52.847Z,37.45
2022-12-04T20:54:17.874Z,37.78
2022-12-04T21:19:31.168Z,35.72
2022-12-04T21:24:38.850Z,38.63
2022-12-04T21:30:09.813Z,36.53
2022-12-04T21:35:15.671Z,37.67
2022-12-04T21:40:21.780Z,33.70
2022-12-04T21:45:36.046Z,33.85
2022-12-04T21:50:38.989Z,34.28
2022-12-04T21:55:47.986Z,38.10
2022-12-04T22:00:55.343Z,36.25
2022-12-04T22:06:01.177Z,39.08
2022-12-04T22:11:06.986Z,36.00
2022-12-04T22:16:17.297Z,35.90
2022-12-04T22:21:20.168Z,41.70
2022-12-04T22:26:23.102Z,42.85
2022-12-04T22:31:29.483Z,39.83
2022-12-04T22:36:33.609Z,43.65
2022-12-04T22:41:36.379Z,46.13
2022-12-04T22:46:40.491Z,47.72
2022-12-04T22:51:43.330Z,43.83
2022-12-04T22:56:46.196Z,47.95
2022-12-04T23:01:50.316Z,42.75
2022-12-04T23:06:53.351Z,43.95
2022-12-04T23:11:57.484Z,45.10
2022-12-04T23:17:01.766Z,44.78
2022-12-04T23:22:04.645Z,43.10
2022-12-04T23:27:07.337Z,36.38
2022-12-04T23:32:11.526Z,41.90
2022-12-04T23:37:14.291Z,39.42
2022-12-04T23:42:17.001Z,40.53
2022-12-04T23:47:21.182Z,39.28
2022-12-04T23:52:24.264Z,38.20
2022-12-04T23:57:29.657Z,41.70
